createdAt,value
2023-03-10T00:00:55.502Z,33.93
2023-03-10T00:03:24.063Z,31.20
2023-03-10T00:05:54.133Z,34.23
2023-03-10T00:08:22.772Z,32.60
2023-03-10T00:10:51.311Z,31.77
2023-03-10T00:13:20.620Z,30.53
2023-03-10T00:15:50.525Z,31.00
2023-03-10T00:18:18.564Z,30.27
2023-03-10T00:20:47.488Z,31.13
2023-03-10T00:23:17.324Z,29.93
2023-03-10T00:25:46.039Z,32.83
2023-03-10T00:28:14.577Z,31.90
2023-03-10T00:30:43.155Z,31.83
2023-03-10T00:33:11.852Z,32.83
2023-03-10T00:35:40.347Z,32.10
2023-03-10T00:38:08.777Z,29.67
2023-03-10T00:40:39.542Z,31.03
2023-03-10T00:43:08.096Z,29.43
2023-03-10T00:45:37.189Z,28.10
2023-03-10T00:48:05.809Z,32.97
2023-03-10T00:50:34.369Z,35.20
2023-03-10T00:53:02.808Z,36.97
2023-03-10T00:55:30.942Z,39.13
2023-03-10T00:58:00.584Z,35.30
2023-03-10T01:00:29.071Z,38.10
2023-03-10T01:02:57.541Z,36.97
2023-03-10T01:05:29.088Z,37.73
2023-03-10T01:07:57.551Z,34.90
2023-03-10T01:10:26.698Z,32.00
2023-03-10T01:12:55.262Z,32.13
2023-03-10T01:15:25.331Z,32.00
2023-03-10T01:17:53.840Z,32.67
2023-03-10T01:20:22.461Z,33.23
2023-03-10T01:22:50.855Z,34.87
2023-03-10T01:25:19.140Z,34.23
2023-03-10T01:27:47.781Z,35.60
2023-03-10T01:30:16.774Z,35.23
2023-03-10T01:32:47.516Z,35.03
2023-03-10T01:35:16.043Z,36.13
2023-03-10T01:37:44.693Z,34.73
2023-03-10T01:40:16.572Z,32.53
2023-03-10T01:42:45.398Z,32.13
2023-03-10T01:45:47.078Z,33.90
2023-03-10T01:48:19.189Z,31.97
2023-03-10T01:50:50.931Z,32.73
2023-03-10T01:53:21.280Z,32.27
2023-03-10T01:55:54.297Z,33.10
2023-03-10T01:58:26.003Z,32.40
2023-03-10T02:00:55.785Z,33.47
2023-03-10T02:03:29.652Z,33.03
2023-03-10T02:06:01.090Z,31.67
2023-03-10T02:08:35.108Z,29.03
2023-03-10T02:11:03.979Z,30.40
2023-03-10T02:13:32.617Z,29.87
2023-03-10T02:16:01.238Z,26.67
2023-03-10T02:18:32.915Z,26.37
2023-03-10T02:21:09.224Z,29.70
2023-03-10T02:23:58.734Z,26.13
2023-03-10T02:26:38.844Z,26.17
2023-03-10T02:29:12.546Z,27.43
2023-03-10T02:31:41.262Z,27.53
2023-03-10T02:34:09.604Z,26.50
2023-03-10T02:36:37.669Z,26.00
2023-03-10T02:39:06.988Z,27.53
2023-03-10T02:41:38.143Z,28.07
2023-03-10T02:44:13.021Z,25.90
2023-03-10T02:46:41.731Z,26.37
2023-03-10T02:49:11.804Z,27.13
2023-03-10T02:51:46.284Z,28.10
2023-03-10T02:54:20.287Z,27.70
2023-03-10T02:56:49.728Z,25.33
2023-03-10T02:59:20.415Z,28.13
2023-03-10T03:01:52.720Z,27.13
2023-03-10T03:04:22.110Z,29.37
2023-03-10T03:06:50.597Z,26.67
2023-03-10T03:09:19.233Z,30.57
2023-03-10T03:11:48.498Z,30.77
2023-03-10T03:14:19.752Z,31.90
2023-03-10T03:16:50.183Z,30.80
2023-03-10T03:19:19.792Z,31.33
2023-03-10T03:21:50.090Z,31.63
2023-03-10T03:24:21.160Z,30.10
2023-03-10T03:26:50.001Z,29.67
2023-03-10T03:29:23.152Z,28.27
2023-03-10T03:31:52.006Z,25.93
2023-03-10T03:34:23.865Z,30.03
2023-03-10T03:36:54.967Z,28.50
2023-03-10T03:39:30.051Z,29.20
2023-03-10T03:42:01.579Z,29.13
2023-03-10T03:44:40.440Z,28.10
2023-03-10T03:47:10.651Z,29.83
2023-03-10T03:49:39.998Z,29.77
2023-03-10T03:52:10.070Z,29.07
2023-03-10T03:54:38.666Z,26.20
2023-03-10T03:57:07.615Z,28.60
2023-03-10T03:59:40.218Z,28.73
2023-03-10T04:02:08.993Z,28.17
2023-03-10T04:04:37.924Z,30.17
2023-03-10T04:07:09.500Z,29.13
2023-03-10T04:09:40.087Z,26.87
2023-03-10T04:12:09.874Z,29.37
2023-03-10T04:14:45.836Z,27.33
2023-03-10T04:17:16.964Z,30.93
2023-03-10T04:19:51.283Z,29.53
2023-03-10T04:22:26.018Z,27.83
2023-03-10T04:24:55.274Z,31.17
2023-03-10T04:27:23.868Z,27.20
2023-03-10T04:29:53.841Z,28.13
2023-03-10T04:32:23.484Z,28.67
2023-03-10T04:34:52.158Z,28.63
2023-03-10T04:37:21.942Z,28.83
2023-03-10T04:39:50.787Z,29.40
2023-03-10T04:42:19.755Z,27.57
2023-03-10T04:44:48.470Z,30.40
2023-03-10T04:47:18.594Z,31.43
2023-03-10T04:49:47.182Z,29.43
2023-03-10T04:52:16.272Z,30.80
2023-03-10T04:54:46.607Z,32.03
2023-03-10T04:57:18.695Z,30.87
2023-03-10T04:59:47.629Z,30.03
2023-03-10T05:02:20.760Z,29.37
2023-03-10T05:04:49.389Z,31.03
2023-03-10T05:07:17.915Z,29.77
2023-03-10T05:09:49.349Z,32.83
2023-03-10T05:12:17.961Z,33.47
2023-03-10T05:14:46.582Z,31.77
2023-03-10T05:17:15.118Z,30.40
2023-03-10T05:19:46.763Z,29.97
2023-03-10T05:22:15.425Z,28.53
2023-03-10T05:24:44.194Z,31.63
2023-03-10T05:27:15.016Z,31.63
2023-03-10T05:29:45.635Z,33.77
2023-03-10T05:32:20.669Z,32.30
2023-03-10T05:34:51.635Z,35.57
2023-03-10T05:37:20.382Z,34.60
2023-03-10T05:39:49.607Z,31.03
2023-03-10T05:42:21.433Z,31.57
2023-03-10T05:44:52.651Z,34.53
2023-03-10T05:47:21.243Z,33.20
2023-03-10T05:49:52.462Z,31.07
2023-03-10T05:52:20.674Z,29.10
2023-03-10T05:54:48.736Z,31.33
2023-03-10T05:57:16.809Z,31.37
2023-03-10T05:59:44.908Z,32.57
2023-03-10T06:02:13.338Z,34.17
2023-03-10T06:04:41.354Z,34.00
2023-03-10T06:07:10.753Z,30.57
2023-03-10T06:09:38.836Z,29.63
2023-03-10T06:12:07.439Z,30.80
2023-03-10T06:14:35.660Z,32.10
2023-03-10T06:17:03.720Z,33.47
2023-03-10T06:19:31.855Z,30.90
2023-03-10T06:21:59.891Z,32.13
2023-03-10T06:24:30.625Z,33.40
2023-03-10T06:26:58.763Z,33.93
2023-03-10T06:29:26.841Z,32.10
2023-03-10T06:31:55.091Z,32.90
2023-03-10T06:34:23.223Z,37.13
2023-03-10T06:36:51.264Z,37.43
2023-03-10T06:39:19.323Z,33.53
2023-03-10T06:41:51.747Z,34.43
2023-03-10T06:44:19.820Z,33.37
2023-03-10T06:46:48.008Z,34.10
2023-03-10T06:49:16.112Z,34.13
2023-03-10T06:51:44.153Z,33.00
2023-03-10T06:54:12.178Z,30.90
2023-03-10T06:56:40.266Z,32.77
2023-03-10T06:59:09.675Z,33.40
2023-03-10T07:01:37.697Z,32.90
2023-03-10T07:04:06.009Z,31.73
2023-03-10T07:06:34.048Z,30.60
2023-03-10T07:09:02.099Z,33.23
2023-03-10T07:11:30.237Z,33.73
2023-03-10T07:13:58.318Z,30.27
2023-03-10T07:16:27.787Z,28.90
2023-03-10T07:18:55.856Z,27.73
2023-03-10T07:21:23.900Z,30.77
2023-03-10T07:23:51.990Z,30.50
2023-03-10T07:26:20.594Z,30.97
2023-03-10T07:28:48.981Z,30.97
2023-03-10T07:31:18.098Z,28.77
2023-03-10T07:33:47.575Z,27.40
2023-03-10T07:36:17.535Z,29.50
2023-03-10T07:38:46.162Z,29.77
2023-03-10T07:41:17.403Z,26.97
2023-03-10T07:43:45.990Z,29.03
2023-03-10T07:46:15.914Z,28.47
2023-03-10T07:48:44.712Z,30.00
2023-03-10T07:51:14.397Z,28.57
2023-03-10T07:53:42.695Z,28.10
2023-03-10T07:56:12.547Z,26.40
2023-03-10T07:58:41.119Z,29.23
2023-03-10T08:01:15.229Z,27.80
2023-03-10T08:03:44.379Z,28.23
2023-03-10T08:06:19.634Z,30.67
2023-03-10T08:08:47.982Z,29.70
2023-03-10T08:11:16.352Z,30.43
2023-03-10T08:13:45.969Z,27.80
2023-03-10T08:16:15.076Z,29.03
2023-03-10T08:18:43.795Z,27.87
2023-03-10T08:21:12.513Z,26.33
2023-03-10T08:23:41.984Z,28.27
2023-03-10T08:26:13.938Z,25.90
2023-03-10T08:28:42.697Z,26.13
2023-03-10T08:31:12.386Z,29.83
2023-03-10T08:33:41.053Z,28.77
2023-03-10T08:36:12.272Z,26.00
2023-03-10T08:38:42.279Z,26.87
2023-03-10T08:41:15.839Z,27.63
2023-03-10T08:43:44.678Z,25.53
2023-03-10T08:46:14.342Z,26.67
2023-03-10T08:48:43.118Z,24.90
2023-03-10T08:51:13.787Z,25.27
2023-03-10T08:53:46.609Z,25.43
2023-03-10T08:56:15.967Z,28.03
2023-03-10T08:58:44.039Z,27.43
2023-03-10T09:01:12.222Z,25.50
2023-03-10T09:03:41.676Z,26.23
2023-03-10T09:06:10.157Z,25.87
2023-03-10T09:08:39.697Z,31.37
2023-03-10T09:11:09.387Z,26.00
2023-03-10T09:13:37.449Z,26.73
2023-03-10T09:16:05.958Z,27.07
2023-03-10T09:18:34.132Z,26.37
2023-03-10T09:21:02.886Z,27.10
2023-03-10T09:23:32.095Z,29.50
2023-03-10T09:26:00.223Z,27.73
2023-03-10T09:28:29.628Z,28.27
2023-03-10T09:30:57.674Z,29.67
2023-03-10T09:33:25.876Z,28.63
2023-03-10T09:36:08.251Z,28.90
2023-03-10T09:38:37.173Z,26.63
2023-03-10T09:41:20.083Z,30.13
2023-03-10T09:43:58.665Z,29.20
2023-03-10T09:46:31.821Z,27.50
2023-03-10T09:49:06.137Z,26.90
2023-03-10T09:51:34.245Z,28.67
2023-03-10T09:54:26.164Z,28.97
2023-03-10T09:56:55.897Z,30.77
2023-03-10T09:59:32.762Z,29.07
2023-03-10T10:02:03.022Z,27.80
2023-03-10T10:04:36.924Z,30.73
2023-03-10T10:07:14.802Z,28.77
2023-03-10T10:09:48.387Z,28.47
2023-03-10T10:12:18.612Z,28.87
2023-03-10T10:14:56.955Z,28.77
2023-03-10T10:17:47.265Z,29.17
2023-03-10T10:20:23.681Z,30.53
2023-03-10T10:22:51.773Z,30.80
2023-03-10T10:25:23.129Z,29.97
2023-03-10T10:27:53.911Z,28.60
2023-03-10T10:30:35.449Z,31.03
2023-03-10T10:33:05.346Z,30.30
2023-03-10T10:35:36.080Z,29.23
2023-03-10T10:38:06.821Z,30.10
2023-03-10T10:40:37.661Z,31.97
2023-03-10T10:43:07.698Z,30.33
2023-03-10T10:45:40.408Z,33.03
2023-03-10T10:48:34.082Z,31.90
2023-03-10T10:51:02.298Z,31.90
2023-03-10T10:53:34.360Z,31.37
2023-03-10T10:56:06.100Z,32.83
2023-03-10T10:58:36.650Z,31.47
2023-03-10T11:01:08.408Z,31.90
2023-03-10T11:03:38.173Z,32.57
2023-03-10T11:06:15.904Z,30.93
2023-03-10T11:08:51.251Z,30.30
2023-03-10T11:11:30.345Z,28.93
2023-03-10T11:14:14.273Z,33.80
2023-03-10T11:16:54.627Z,29.57
2023-03-10T11:19:30.064Z,33.33
2023-03-10T11:22:05.611Z,32.43
2023-03-10T11:24:41.729Z,30.53
2023-03-10T11:27:17.092Z,33.30
2023-03-10T11:41:50.373Z,31.00
2023-03-10T11:44:29.559Z,32.23
2023-03-10T11:47:05.311Z,35.60
2023-03-10T11:49:38.257Z,32.67
2023-03-10T11:52:13.429Z,30.83
2023-03-10T11:54:45.068Z,30.90
2023-03-10T11:57:18.659Z,35.33
2023-03-10T11:59:51.218Z,33.60
2023-03-10T12:02:24.686Z,33.63
2023-03-10T12:04:59.966Z,33.53
2023-03-10T12:07:32.788Z,34.43
2023-03-10T12:10:04.268Z,34.03
2023-03-10T12:12:34.589Z,35.00
2023-03-10T12:15:05.848Z,30.63
2023-03-10T12:17:34.601Z,36.80
2023-03-10T12:20:12.066Z,32.33
2023-03-10T12:22:42.229Z,35.33
2023-03-10T12:25:43.912Z,34.97
2023-03-10T12:28:24.266Z,33.53
2023-03-10T12:30:56.425Z,35.63
2023-03-10T12:33:48.260Z,32.80
2023-03-10T12:36:34.456Z,32.77
2023-03-10T12:39:23.004Z,30.50
2023-03-10T12:41:53.184Z,33.00
2023-03-10T12:44:35.287Z,32.63
2023-03-10T12:47:16.782Z,32.93
2023-03-10T12:49:51.786Z,32.37
2023-03-10T12:52:28.427Z,31.40
2023-03-10T12:55:08.686Z,33.73
2023-03-10T12:57:42.035Z,30.77
2023-03-10T13:00:21.456Z,32.53
2023-03-10T13:02:54.109Z,30.47
2023-03-10T13:05:25.789Z,31.77
2023-03-10T13:08:00.609Z,30.63
2023-03-10T13:10:31.744Z,34.83
2023-03-10T13:13:03.790Z,29.17
2023-03-10T13:15:33.921Z,31.70
2023-03-10T13:18:16.851Z,29.80
2023-03-10T13:20:44.911Z,32.37
2023-03-10T13:23:22.848Z,27.60
2023-03-10T13:25:55.480Z,28.07
2023-03-10T13:28:23.987Z,29.33
2023-03-10T13:30:52.377Z,28.17
2023-03-10T13:33:25.630Z,30.07
2023-03-10T13:35:54.487Z,29.13
2023-03-10T13:38:25.340Z,30.80
2023-03-10T14:16:16.647Z,26.90
2023-03-10T14:18:44.899Z,23.23
2023-03-10T14:21:33.420Z,24.83
2023-03-10T14:24:06.453Z,23.33
2023-03-10T14:26:34.972Z,23.27
2023-03-10T14:29:04.735Z,21.57
2023-03-10T14:31:36.537Z,22.27
2023-03-10T14:34:04.731Z,22.40
2023-03-10T14:36:32.912Z,25.47
2023-03-10T14:39:01.032Z,24.40
2023-03-10T14:41:30.255Z,22.87
2023-03-10T14:43:59.896Z,25.37
2023-03-10T14:46:28.800Z,23.00
2023-03-10T14:48:58.621Z,23.63
2023-03-10T14:51:35.478Z,24.27
2023-03-10T14:54:05.085Z,22.73
2023-03-10T14:56:34.293Z,27.07
2023-03-10T14:59:02.874Z,25.67
2023-03-10T15:01:32.005Z,23.83
2023-03-10T15:04:01.452Z,25.43
2023-03-10T15:06:29.612Z,23.20
2023-03-10T15:08:57.719Z,23.77
2023-03-10T15:11:37.061Z,25.27
2023-03-10T15:14:13.227Z,23.53
2023-03-10T15:16:41.316Z,23.23
2023-03-10T15:19:18.010Z,23.90
2023-03-10T15:21:46.172Z,23.53
2023-03-10T15:24:15.456Z,24.73
2023-03-10T15:26:43.888Z,24.07
2023-03-10T15:29:15.087Z,25.47
2023-03-10T15:31:43.289Z,25.67
2023-03-10T15:34:12.725Z,23.47
2023-03-10T15:36:40.853Z,23.80
2023-03-10T15:39:10.973Z,24.03
2023-03-10T15:41:40.968Z,22.57
2023-03-10T15:44:10.023Z,24.47
2023-03-10T15:46:38.832Z,21.67
2023-03-10T15:49:07.003Z,20.20
2023-03-10T15:51:36.503Z,20.40
2023-03-10T15:54:04.814Z,21.80
2023-03-10T15:56:33.979Z,21.57
2023-03-10T15:59:02.227Z,24.27
2023-03-10T16:01:30.257Z,22.10
2023-03-10T16:04:01.575Z,23.37
2023-03-10T16:06:29.942Z,21.50
2023-03-10T16:08:59.434Z,22.90
2023-03-10T16:11:27.586Z,24.60
2023-03-10T16:13:55.652Z,21.47
2023-03-10T16:16:25.443Z,20.23
2023-03-10T16:18:54.224Z,19.90
2023-03-10T16:21:22.756Z,21.63
2023-03-10T16:23:50.820Z,21.20
2023-03-10T16:26:22.170Z,20.77
2023-03-10T16:28:52.618Z,24.43
2023-03-10T16:31:22.715Z,21.57
2023-03-10T16:33:52.089Z,21.57
2023-03-10T16:36:21.868Z,22.43
2023-03-10T16:38:50.486Z,20.87
2023-03-10T16:41:20.394Z,21.27
2023-03-10T16:43:48.678Z,21.77
2023-03-10T16:46:20.178Z,21.53
2023-03-10T16:48:49.227Z,21.20
2023-03-10T16:51:29.272Z,25.30
2023-03-10T16:53:59.243Z,21.50
2023-03-10T16:56:30.121Z,25.33
2023-03-10T16:58:58.778Z,21.97
2023-03-10T17:01:27.164Z,21.83
2023-03-10T17:03:56.125Z,22.60
2023-03-10T17:06:26.729Z,20.80
2023-03-10T17:08:55.906Z,20.57
2023-03-10T17:11:26.515Z,23.17
2023-03-10T17:13:58.038Z,22.23
2023-03-10T17:16:28.363Z,22.47
2023-03-10T17:18:57.495Z,23.93
2023-03-10T17:21:27.803Z,23.90
2023-03-10T17:23:56.417Z,22.27
2023-03-10T17:26:24.882Z,22.17
2023-03-10T17:28:53.293Z,23.13
2023-03-10T17:31:26.921Z,21.13
2023-03-10T17:33:55.606Z,23.87
2023-03-10T17:36:24.134Z,23.30
2023-03-10T17:38:54.041Z,23.53
2023-03-10T17:41:22.424Z,26.47
2023-03-10T17:43:50.806Z,23.40
2023-03-10T17:46:21.595Z,24.30
2023-03-10T17:48:52.102Z,24.57
2023-03-10T17:51:22.282Z,24.90
2023-03-10T17:53:52.079Z,21.93
2023-03-10T17:56:21.939Z,23.73
2023-03-10T17:58:50.724Z,24.73
2023-03-10T18:01:20.991Z,25.07
2023-03-10T18:03:50.563Z,24.90
2023-03-10T18:06:20.708Z,23.17
2023-03-10T18:08:49.037Z,22.10
2023-03-10T18:11:18.832Z,22.57
2023-03-10T18:13:47.038Z,23.00
2023-03-10T18:16:18.678Z,24.20
2023-03-10T18:18:47.006Z,22.53
2023-03-10T18:21:17.571Z,22.70
2023-03-10T18:23:46.441Z,24.93
2023-03-10T18:26:16.729Z,24.17
2023-03-10T18:28:45.070Z,23.03
2023-03-10T18:31:22.501Z,22.60
2023-03-10T18:33:50.682Z,24.33
2023-03-10T18:36:23.186Z,24.30
2023-03-10T18:38:51.769Z,25.77
2023-03-10T18:41:21.241Z,26.40
2023-03-10T18:43:49.506Z,24.73
2023-03-10T18:46:17.686Z,26.17
2023-03-10T18:48:45.824Z,22.50
2023-03-10T18:51:14.654Z,21.87
2023-03-10T18:53:45.154Z,23.40
2023-03-10T18:56:13.297Z,24.03
2023-03-10T18:58:41.380Z,24.83
2023-03-10T19:01:11.845Z,26.13
2023-03-10T19:03:40.144Z,21.87
2023-03-10T19:06:09.518Z,23.90
2023-03-10T19:08:38.566Z,24.03
2023-03-10T19:11:08.263Z,23.33
2023-03-10T19:13:40.345Z,23.17
2023-03-10T19:16:12.283Z,22.77
2023-03-10T19:18:40.572Z,24.03
2023-03-10T19:21:09.507Z,24.20
2023-03-10T19:23:38.107Z,21.10
2023-03-10T19:26:08.942Z,23.77
2023-03-10T19:28:37.798Z,22.27
2023-03-10T19:31:10.589Z,23.13
2023-03-10T19:33:39.816Z,24.57
2023-03-10T19:36:11.778Z,24.03
2023-03-10T19:38:40.805Z,28.80
2023-03-10T19:41:14.919Z,23.97
2023-03-10T19:43:43.796Z,26.07
2023-03-10T19:46:14.055Z,24.17
2023-03-10T19:48:42.505Z,21.97
2023-03-10T19:51:17.349Z,23.87
2023-03-10T19:53:45.406Z,20.23
2023-03-10T19:56:18.004Z,19.90
2023-03-10T19:58:46.845Z,21.97
2023-03-10T20:01:15.505Z,21.30
2023-03-10T20:03:44.103Z,21.93
2023-03-10T20:06:12.472Z,22.77
2023-03-10T20:08:40.535Z,19.97
2023-03-10T20:11:11.816Z,22.50
2023-03-10T20:13:41.997Z,20.90
2023-03-10T20:16:11.006Z,19.80
2023-03-10T20:18:39.223Z,19.13
2023-03-10T20:21:08.029Z,20.33
2023-03-10T20:23:36.472Z,19.87
2023-03-10T20:26:06.454Z,19.70
2023-03-10T20:28:35.838Z,18.70
2023-03-10T20:31:05.667Z,19.07
2023-03-10T20:33:35.125Z,19.70
2023-03-10T20:36:03.381Z,21.40
2023-03-10T20:38:31.525Z,22.00
2023-03-10T20:40:59.584Z,19.67
2023-03-10T20:43:28.148Z,20.67
2023-03-10T20:45:56.272Z,22.90
2023-03-10T20:48:25.779Z,24.47
2023-03-10T20:50:55.989Z,24.23
2023-03-10T20:53:24.232Z,22.60
2023-03-10T20:55:52.348Z,22.43
2023-03-10T20:58:20.406Z,22.17
2023-03-10T21:00:49.081Z,22.20
2023-03-10T21:03:17.148Z,21.03
2023-03-10T21:05:46.802Z,21.63
2023-03-10T21:08:14.869Z,23.43
2023-03-10T21:10:44.515Z,21.43
2023-03-10T21:13:12.832Z,21.97
2023-03-10T21:15:41.552Z,22.17
2023-03-10T21:18:09.629Z,21.10
2023-03-10T21:20:37.679Z,20.97
2023-03-10T21:23:07.195Z,19.07
2023-03-10T21:25:35.298Z,20.23
2023-03-10T21:28:03.563Z,20.87
2023-03-10T21:30:33.580Z,18.33
2023-03-10T21:33:01.776Z,17.70
2023-03-10T21:35:34.070Z,20.37
2023-03-10T21:38:02.408Z,17.20
2023-03-10T21:40:31.934Z,17.97
2023-03-10T21:43:02.524Z,20.27
2023-03-10T21:45:33.404Z,17.83
2023-03-10T21:48:03.054Z,17.70
2023-03-10T21:50:31.399Z,16.20
2023-03-10T21:52:59.751Z,16.07
2023-03-10T21:55:29.351Z,16.10
2023-03-10T21:57:59.357Z,15.37
2023-03-10T22:00:27.549Z,16.33
2023-03-10T22:02:55.625Z,18.77
2023-03-10T22:05:24.218Z,16.43
2023-03-10T22:07:53.325Z,16.10
2023-03-10T22:10:21.544Z,16.30
2023-03-10T22:12:50.041Z,19.60
2023-03-10T22:15:22.341Z,19.43
2023-03-10T22:17:51.813Z,17.37
2023-03-10T22:20:22.212Z,19.73
2023-03-10T22:22:50.258Z,18.80
2023-03-10T22:25:18.763Z,17.83
2023-03-10T22:27:50.397Z,17.73
2023-03-10T22:30:20.702Z,18.13
2023-03-10T22:32:49.568Z,17.93
2023-03-10T22:35:19.191Z,17.90
2023-03-10T22:37:47.263Z,16.87
2023-03-10T22:40:17.146Z,17.07
2023-03-10T22:42:46.610Z,17.50
2023-03-10T22:45:20.565Z,17.83
2023-03-10T22:47:49.436Z,14.90
2023-03-10T22:50:21.771Z,17.37
2023-03-10T22:52:50.356Z,18.70
2023-03-10T22:55:20.105Z,15.07
2023-03-10T22:57:48.150Z,15.90
2023-03-10T23:00:20.105Z,15.30
2023-03-10T23:02:50.695Z,17.17
2023-03-10T23:05:18.883Z,15.77
2023-03-10T23:07:47.656Z,20.20
2023-03-10T23:10:18.093Z,19.90
2023-03-10T23:12:46.323Z,19.10
2023-03-10T23:15:24.796Z,20.00
2023-03-10T23:17:56.047Z,22.20
2023-03-10T23:20:27.261Z,27.67
2023-03-10T23:22:56.418Z,25.67
2023-03-10T23:25:26.345Z,29.30
2023-03-10T23:27:54.620Z,31.13
2023-03-10T23:30:23.424Z,32.90
2023-03-10T23:32:52.009Z,32.70
2023-03-10T23:35:23.390Z,33.63
2023-03-10T23:37:51.497Z,32.20
2023-03-10T23:40:21.723Z,36.37
2023-03-10T23:42:49.848Z,32.80
2023-03-10T23:45:20.170Z,30.70
2023-03-10T23:47:48.636Z,28.10
2023-03-10T23:50:18.769Z,26.47
2023-03-10T23:52:48.419Z,23.67
2023-03-10T23:55:19.264Z,23.23
2023-03-10T23:57:47.581Z,22.40
